Time;durP1;ratioP1;P1;durP2;ratioP2;P2;SDS_P1;SDS_P2;PMS_P1;PMS_P2;Temp;Humidity;BMP_temperature;BMP_pressure;BME280_temperature;BME280_humidity;BME280_pressure;Samples;Min_cycle;Max_cycle;Signal;HPM_P1;HPM_P2
2021/12/28 00:02:00;;;;;;;26.75;15.70;;;;;;;;;;5096037;28;20067;-74
2021/12/28 00:04:26;;;;;;;38.33;21.13;;;;;;;;;;5096439;28;20055;-74
2021/12/28 00:06:52;;;;;;;36.70;20.02;;;;;;;;;;5096324;28;20092;-74
2021/12/28 00:09:18;;;;;;;36.38;19.95;;;;;;;;;;5095732;28;20031;-75
2021/12/28 00:11:45;;;;;;;33.30;20.67;;;;;;;;;;5096550;28;20044;-74
2021/12/28 00:14:11;;;;;;;30.65;15.55;;;;;;;;;;5096179;28;20069;-74
2021/12/28 00:19:22;;;;;;;33.13;18.98;;;;;;;;;;5096352;28;20388;-74
2021/12/28 00:21:48;;;;;;;27.25;17.38;;;;;;;;;;5095641;28;20028;-74
2021/12/28 00:24:15;;;;;;;40.60;22.00;;;;;;;;;;5095584;28;20027;-74
2021/12/28 00:26:41;;;;;;;68.00;34.42;;;;;;;;;;5095989;28;20027;-74
2021/12/28 00:29:07;;;;;;;55.58;29.90;;;;;;;;;;5095950;28;20027;-74
2021/12/28 00:31:33;;;;;;;47.25;26.88;;;;;;;;;;5095503;28;20032;-75
2021/12/28 00:34:00;;;;;;;41.92;21.67;;;;;;;;;;5095820;28;20099;-75
2021/12/28 00:36:26;;;;;;;31.65;18.08;;;;;;;;;;5095433;28;20095;-75
2021/12/28 00:38:52;;;;;;;33.13;17.15;;;;;;;;;;5096030;28;20028;-76
2021/12/28 00:41:20;;;;;;;42.00;23.40;;;;;;;;;;5095696;28;20081;-75
2021/12/28 00:43:46;;;;;;;50.05;24.77;;;;;;;;;;5095329;28;20056;-75
2021/12/28 00:46:13;;;;;;;43.97;24.38;;;;;;;;;;5095738;28;20030;-75
2021/12/28 00:48:39;;;;;;;58.22;29.58;;;;;;;;;;5095551;28;20043;-75
2021/12/28 00:51:06;;;;;;;49.15;25.52;;;;;;;;;;5094898;28;20044;-76
2021/12/28 00:53:32;;;;;;;39.13;21.50;;;;;;;;;;5095552;28;20033;-75
2021/12/28 00:55:59;;;;;;;37.25;19.45;;;;;;;;;;5095361;28;20426;-75
2021/12/28 00:58:25;;;;;;;34.03;19.60;;;;;;;;;;5095154;28;20020;-75
2021/12/28 01:00:51;;;;;;;36.72;20.63;;;;;;;;;;5077163;28;20024;-75
2021/12/28 01:03:18;;;;;;;33.45;19.02;;;;;;;;;;5095543;28;20039;-75
2021/12/28 01:05:44;;;;;;;41.42;22.45;;;;;;;;;;5094956;28;20013;-75
2021/12/28 01:08:11;;;;;;;34.92;18.85;;;;;;;;;;5095179;28;20035;-75
2021/12/28 01:10:42;;;;;;;31.30;18.10;;;;;;;;;;5095057;28;20089;-74
2021/12/28 01:13:09;;;;;;;36.53;20.15;;;;;;;;;;5094797;28;20058;-75
2021/12/28 01:15:35;;;;;;;51.20;26.92;;;;;;;;;;5095498;28;20028;-74
2021/12/28 01:18:01;;;;;;;47.72;24.70;;;;;;;;;;5095027;28;20016;-75
2021/12/28 01:20:27;;;;;;;39.95;21.77;;;;;;;;;;5094562;28;20024;-75
2021/12/28 01:22:54;;;;;;;33.40;19.60;;;;;;;;;;5094829;28;20017;-75
2021/12/28 01:25:22;;;;;;;34.47;18.67;;;;;;;;;;5076682;28;20077;-74
2021/12/28 01:27:48;;;;;;;32.78;19.42;;;;;;;;;;5094389;28;20537;-74
2021/12/28 01:30:15;;;;;;;25.85;16.42;;;;;;;;;;5094953;28;20036;-74
2021/12/28 01:32:42;;;;;;;29.02;17.92;;;;;;;;;;5094624;28;20095;-75
2021/12/28 01:35:09;;;;;;;27.20;15.15;;;;;;;;;;5093858;28;20046;-75
2021/12/28 01:37:36;;;;;;;28.10;17.00;;;;;;;;;;5094623;28;20027;-74
2021/12/28 01:40:03;;;;;;;28.55;16.67;;;;;;;;;;5094248;28;20095;-75
2021/12/28 01:42:29;;;;;;;29.77;16.85;;;;;;;;;;5094536;28;20049;-75
2021/12/28 01:44:55;;;;;;;29.25;16.80;;;;;;;;;;5094974;28;20406;-75
2021/12/28 01:47:22;;;;;;;28.15;16.95;;;;;;;;;;5094034;28;20055;-76
2021/12/28 01:49:48;;;;;;;31.15;17.30;;;;;;;;;;5094209;28;20454;-75
2021/12/28 01:52:14;;;;;;;35.15;20.48;;;;;;;;;;5094325;28;20027;-75
2021/12/28 01:54:41;;;;;;;33.63;19.27;;;;;;;;;;5093908;28;20016;-74
2021/12/28 01:57:08;;;;;;;26.08;16.90;;;;;;;;;;5094595;28;20117;-74
2021/12/28 01:59:34;;;;;;;29.90;17.75;;;;;;;;;;5094217;28;20491;-74
2021/12/28 02:02:00;;;;;;;34.38;20.25;;;;;;;;;;5093775;28;20035;-75
2021/12/28 02:04:28;;;;;;;42.33;25.00;;;;;;;;;;5094212;28;20081;-76
2021/12/28 02:06:57;;;;;;;50.58;25.20;;;;;;;;;;5094529;28;20091;-75
2021/12/28 02:09:24;;;;;;;55.38;30.23;;;;;;;;;;5093666;28;20024;-75
2021/12/28 02:11:50;;;;;;;39.17;19.02;;;;;;;;;;5093973;28;20574;-75
2021/12/28 02:14:16;;;;;;;29.15;15.20;;;;;;;;;;5094001;28;20426;-75
2021/12/28 02:16:44;;;;;;;24.70;13.30;;;;;;;;;;5093570;28;20058;-74
2021/12/28 02:19:11;;;;;;;32.83;16.52;;;;;;;;;;5094057;28;20111;-75
2021/12/28 02:21:37;;;;;;;30.58;16.45;;;;;;;;;;5093836;28;20027;-74
2021/12/28 02:24:05;;;;;;;27.65;13.73;;;;;;;;;;5093361;28;20096;-75
2021/12/28 02:26:31;;;;;;;24.63;14.05;;;;;;;;;;5093818;28;20109;-74
2021/12/28 02:28:58;;;;;;;30.48;15.15;;;;;;;;;;5093346;28;20055;-74
2021/12/28 02:31:24;;;;;;;30.27;17.33;;;;;;;;;;5093635;28;20028;-74
2021/12/28 02:33:51;;;;;;;31.75;18.52;;;;;;;;;;5075565;28;20020;-74
2021/12/28 02:36:18;;;;;;;31.38;15.93;;;;;;;;;;5093216;28;20058;-75
2021/12/28 02:38:45;;;;;;;23.30;14.00;;;;;;;;;;5093578;28;20024;-75
2021/12/28 02:41:11;;;;;;;23.48;12.57;;;;;;;;;;5075549;28;20433;-74
2021/12/28 02:43:39;;;;;;;17.10;9.07;;;;;;;;;;5093114;28;20059;-75
2021/12/28 02:46:06;;;;;;;16.33;8.63;;;;;;;;;;5093317;28;20499;-75
2021/12/28 02:48:33;;;;;;;18.25;10.05;;;;;;;;;;5093950;28;20020;-75
2021/12/28 02:51:00;;;;;;;24.17;13.75;;;;;;;;;;5092742;28;20052;-76
2021/12/28 02:53:27;;;;;;;39.28;18.73;;;;;;;;;;5093446;28;20020;-75
2021/12/28 02:55:54;;;;;;;47.00;21.10;;;;;;;;;;5093501;28;20095;-75
2021/12/28 02:58:31;;;;;;;37.67;19.52;;;;;;;;;;5074978;28;20361;-74
2021/12/28 03:01:01;;;;;;;41.05;17.48;;;;;;;;;;5093771;28;20102;-75
2021/12/28 03:03:28;;;;;;;29.65;14.50;;;;;;;;;;5093723;28;20040;-75
2021/12/28 03:05:56;;;;;;;31.13;16.08;;;;;;;;;;5092989;28;20024;-75
2021/12/28 03:08:23;;;;;;;28.38;15.25;;;;;;;;;;5093323;28;20016;-75
2021/12/28 03:10:50;;;;;;;18.48;10.82;;;;;;;;;;5075062;28;20123;-74
2021/12/28 03:13:22;;;;;;;20.42;10.02;;;;;;;;;;5092895;28;20413;-74
2021/12/28 03:15:48;;;;;;;17.63;9.32;;;;;;;;;;5093500;28;20099;-75
2021/12/28 03:18:14;;;;;;;17.27;9.00;;;;;;;;;;5092836;28;20578;-75
2021/12/28 03:20:40;;;;;;;22.50;9.32;;;;;;;;;;5093202;28;20024;-75
2021/12/28 03:23:07;;;;;;;20.90;9.02;;;;;;;;;;5093210;28;20020;-75
2021/12/28 03:25:34;;;;;;;19.10;10.93;;;;;;;;;;5092981;28;20095;-75
2021/12/28 03:28:01;;;;;;;25.05;12.93;;;;;;;;;;5093122;28;20035;-74
2021/12/28 03:30:27;;;;;;;31.13;15.68;;;;;;;;;;5093066;28;20024;-75
2021/12/28 03:32:53;;;;;;;23.52;12.43;;;;;;;;;;5092787;28;20103;-74
2021/12/28 03:35:20;;;;;;;25.50;12.43;;;;;;;;;;5093166;28;20578;-75
2021/12/28 03:37:46;;;;;;;20.33;11.68;;;;;;;;;;5093122;28;20024;-75
2021/12/28 03:40:14;;;;;;;18.92;10.20;;;;;;;;;;5092785;28;20035;-74
2021/12/28 03:42:41;;;;;;;19.95;9.52;;;;;;;;;;5074853;28;20020;-74
2021/12/28 03:45:08;;;;;;;13.55;8.23;;;;;;;;;;5093043;28;20024;-75
2021/12/28 03:47:34;;;;;;;17.10;8.85;;;;;;;;;;5092545;28;20028;-75
2021/12/28 03:50:01;;;;;;;18.95;7.82;;;;;;;;;;5092901;28;20499;-76
2021/12/28 03:52:27;;;;;;;14.70;8.52;;;;;;;;;;5092969;28;20060;-75
2021/12/28 03:54:54;;;;;;;17.05;9.23;;;;;;;;;;5074360;28;20392;-74
2021/12/28 03:57:20;;;;;;;17.00;8.55;;;;;;;;;;5093850;28;20365;-74
2021/12/28 03:59:46;;;;;;;14.65;8.20;;;;;;;;;;5096608;28;20032;-74
2021/12/28 04:02:12;;;;;;;18.80;8.52;;;;;;;;;;5096074;28;20445;-74
2021/12/28 04:04:38;;;;;;;17.00;9.50;;;;;;;;;;5078292;28;20028;-74
2021/12/28 04:07:07;;;;;;;17.27;9.98;;;;;;;;;;5096341;28;20093;-75
2021/12/28 04:09:59;;;;;;;18.92;10.27;;;;;;;;;;5095906;28;20013;-74
2021/12/28 04:12:26;;;;;;;18.08;10.90;;;;;;;;;;5096611;28;20134;-74
2021/12/28 04:14:53;;;;;;;16.83;10.35;;;;;;;;;;5095907;28;20024;-74
2021/12/28 04:17:19;;;;;;;16.15;8.68;;;;;;;;;;5096210;28;20028;-74
2021/12/28 04:19:45;;;;;;;18.23;9.70;;;;;;;;;;5096142;28;20016;-74
2021/12/28 04:22:11;;;;;;;22.27;12.27;;;;;;;;;;5095645;28;20077;-75
2021/12/28 04:24:38;;;;;;;19.00;9.90;;;;;;;;;;5096344;28;20028;-75
2021/12/28 04:27:04;;;;;;;19.35;9.85;;;;;;;;;;5077817;28;20146;-74
2021/12/28 04:29:30;;;;;;;20.42;10.07;;;;;;;;;;5095376;28;20024;-75
2021/12/28 04:31:56;;;;;;;20.23;10.30;;;;;;;;;;5096156;28;20474;-75
2021/12/28 04:34:22;;;;;;;21.60;10.05;;;;;;;;;;5096290;28;20020;-75
2021/12/28 04:36:50;;;;;;;21.50;10.93;;;;;;;;;;5095390;28;20365;-75
2021/12/28 04:39:16;;;;;;;34.00;15.30;;;;;;;;;;5077616;28;20020;-75
2021/12/28 04:41:43;;;;;;;35.00;18.42;;;;;;;;;;5095715;28;20032;-75
2021/12/28 04:44:12;;;;;;;30.95;15.02;;;;;;;;;;5077200;28;20081;-75
2021/12/28 04:46:38;;;;;;;32.53;15.90;;;;;;;;;;5095615;28;20545;-75
2021/12/28 04:49:04;;;;;;;32.70;14.10;;;;;;;;;;5077195;28;20040;-76
2021/12/28 04:51:31;;;;;;;29.73;13.18;;;;;;;;;;5095099;28;20028;-75
2021/12/28 04:53:59;;;;;;;27.30;12.73;;;;;;;;;;5095583;28;20023;-74
2021/12/28 04:56:26;;;;;;;22.30;11.80;;;;;;;;;;5077095;28;20396;-74
2021/12/28 04:58:52;;;;;;;25.80;10.73;;;;;;;;;;5095518;28;20044;-74
2021/12/28 05:01:18;;;;;;;19.67;10.07;;;;;;;;;;5077101;28;20020;-73
2021/12/28 05:03:44;;;;;;;21.85;11.70;;;;;;;;;;5094872;28;20380;-72
2021/12/28 05:06:11;;;;;;;36.63;18.40;;;;;;;;;;5095210;28;20099;-72
2021/12/28 05:08:40;;;;;;;34.85;18.65;;;;;;;;;;5095195;28;20017;-72
2021/12/28 05:11:06;;;;;;;36.15;16.30;;;;;;;;;;5094602;28;20369;-72
2021/12/28 05:13:32;;;;;;;30.88;17.10;;;;;;;;;;5076784;28;20024;-72
2021/12/28 05:15:58;;;;;;;56.35;29.10;;;;;;;;;;5095044;28;20035;-72
2021/12/28 05:18:25;;;;;;;45.30;23.65;;;;;;;;;;5094628;28;20427;-71
2021/12/28 05:20:51;;;;;;;33.80;19.92;;;;;;;;;;5094884;28;20197;-69
2021/12/28 05:23:17;;;;;;;57.85;25.25;;;;;;;;;;5094956;28;20434;-72
2021/12/28 05:25:44;;;;;;;51.65;22.15;;;;;;;;;;5094382;28;20025;-73
2021/12/28 05:28:10;;;;;;;45.35;24.50;;;;;;;;;;5094777;28;20099;-72
2021/12/28 05:30:37;;;;;;;49.83;21.58;;;;;;;;;;5094958;28;20097;-71
2021/12/28 05:33:04;;;;;;;32.70;15.50;;;;;;;;;;5094260;28;20027;-72
2021/12/28 05:35:30;;;;;;;33.72;16.98;;;;;;;;;;5094718;28;20054;-72
2021/12/28 05:37:56;;;;;;;31.70;16.38;;;;;;;;;;5094560;28;20028;-72
2021/12/28 05:40:22;;;;;;;23.80;12.27;;;;;;;;;;5094103;28;20468;-72
2021/12/28 05:42:49;;;;;;;22.52;11.77;;;;;;;;;;5076359;28;20020;-71
2021/12/28 05:45:15;;;;;;;23.17;10.48;;;;;;;;;;5094441;28;20020;-72
2021/12/28 05:47:41;;;;;;;23.88;11.43;;;;;;;;;;5094040;28;20047;-72
2021/12/28 05:50:08;;;;;;;27.92;11.57;;;;;;;;;;5094323;28;20082;-72
2021/12/28 05:52:34;;;;;;;20.02;10.63;;;;;;;;;;5094357;28;20024;-72
2021/12/28 05:55:01;;;;;;;28.67;12.93;;;;;;;;;;5093893;28;20091;-73
2021/12/28 05:57:27;;;;;;;27.45;14.45;;;;;;;;;;5094853;28;20481;-73
2021/12/28 05:59:53;;;;;;;91.47;43.58;;;;;;;;;;5093693;28;20035;-72
2021/12/28 06:02:19;;;;;;;62.20;28.70;;;;;;;;;;5093980;28;20046;-72
2021/12/28 06:04:46;;;;;;;50.17;23.23;;;;;;;;;;5094131;28;20020;-70
2021/12/28 06:07:12;;;;;;;77.90;38.00;;;;;;;;;;5075485;28;20107;-72
2021/12/28 06:09:38;;;;;;;78.72;34.63;;;;;;;;;;5093796;28;20472;-73
2021/12/28 06:12:06;;;;;;;56.55;28.63;;;;;;;;;;5089868;28;20484;-72
2021/12/28 06:14:32;;;;;;;44.53;24.83;;;;;;;;;;5074790;28;20451;-67
2021/12/28 06:16:59;;;;;;;36.55;21.63;;;;;;;;;;5093196;28;20021;-69
2021/12/28 06:19:25;;;;;;;43.08;23.92;;;;;;;;;;5093244;28;20020;-69
2021/12/28 06:21:51;;;;;;;61.95;30.80;;;;;;;;;;5092874;28;20031;-69
2021/12/28 06:24:17;;;;;;;70.47;35.53;;;;;;;;;;5093481;28;20028;-71
2021/12/28 06:26:44;;;;;;;60.63;36.35;;;;;;;;;;5073995;28;20028;-70
2021/12/28 06:29:11;;;;;;;92.57;46.47;;;;;;;;;;5073952;28;20129;-69
2021/12/28 06:31:43;;;;;;;85.38;47.80;;;;;;;;;;5073688;28;20043;-70
2021/12/28 06:34:12;;;;;;;77.25;42.80;;;;;;;;;;5092535;28;20028;-71
2021/12/28 06:36:38;;;;;;;67.10;37.83;;;;;;;;;;5092120;28;20032;-74
2021/12/28 06:39:05;;;;;;;79.13;43.85;;;;;;;;;;5093032;28;20030;-70
2021/12/28 06:41:31;;;;;;;48.20;27.70;;;;;;;;;;5093284;28;20050;-67
2021/12/28 06:43:57;;;;;;;46.20;31.02;;;;;;;;;;5092065;28;20021;-69
2021/12/28 06:46:23;;;;;;;37.55;20.98;;;;;;;;;;5074603;28;20496;-71
2021/12/28 06:48:50;;;;;;;34.22;18.92;;;;;;;;;;5074059;28;20020;-70
2021/12/28 06:51:16;;;;;;;38.67;18.58;;;;;;;;;;5083181;28;20041;-70
2021/12/28 06:53:42;;;;;;;46.90;26.35;;;;;;;;;;5080263;28;20489;-69
2021/12/28 06:56:09;;;;;;;45.70;26.70;;;;;;;;;;5072197;28;20029;-70
2021/12/28 06:58:35;;;;;;;53.22;27.58;;;;;;;;;;5072831;28;20535;-69
2021/12/28 07:01:01;;;;;;;57.80;31.13;;;;;;;;;;5055150;28;20029;-71
2021/12/28 07:03:28;;;;;;;89.88;44.38;;;;;;;;;;5072267;28;20029;-72
2021/12/28 07:05:54;;;;;;;64.05;34.75;;;;;;;;;;5072795;28;20021;-73
2021/12/28 07:08:20;;;;;;;93.43;47.55;;;;;;;;;;5072488;28;20024;-72
2021/12/28 07:10:46;;;;;;;73.88;36.95;;;;;;;;;;5072162;28;20037;-72
2021/12/28 07:13:12;;;;;;;74.30;36.85;;;;;;;;;;5053332;28;20016;-69
2021/12/28 07:15:41;;;;;;;46.25;26.35;;;;;;;;;;5071113;28;20031;-72
2021/12/28 07:18:07;;;;;;;76.07;41.38;;;;;;;;;;5054222;28;20545;-72
2021/12/28 07:20:34;;;;;;;125.80;68.93;;;;;;;;;;5072517;28;20384;-72
2021/12/28 07:23:00;;;;;;;166.27;84.95;;;;;;;;;;5072700;28;20017;-71
2021/12/28 07:25:26;;;;;;;95.38;53.38;;;;;;;;;;5074857;28;20028;-71
2021/12/28 07:27:52;;;;;;;115.20;59.25;;;;;;;;;;5072535;28;20376;-69
2021/12/28 07:30:19;;;;;;;129.82;70.38;;;;;;;;;;5054309;28;20031;-69
2021/12/28 07:32:45;;;;;;;154.30;76.38;;;;;;;;;;5073408;28;20108;-72
2021/12/28 07:35:12;;;;;;;108.78;56.50;;;;;;;;;;5058259;28;20465;-68
2021/12/28 07:37:38;;;;;;;83.13;42.53;;;;;;;;;;5061526;28;20426;-70
2021/12/28 07:40:05;;;;;;;60.72;34.85;;;;;;;;;;5075953;28;20063;-70
2021/12/28 07:42:32;;;;;;;57.67;34.60;;;;;;;;;;5090673;28;20096;-71
2021/12/28 07:44:58;;;;;;;62.38;31.13;;;;;;;;;;5096683;28;20024;-73
2021/12/28 07:47:24;;;;;;;60.10;34.10;;;;;;;;;;5086975;28;20021;-71
2021/12/28 07:49:50;;;;;;;64.50;35.97;;;;;;;;;;5065870;28;20048;-70
2021/12/28 07:52:16;;;;;;;63.72;35.45;;;;;;;;;;5095513;28;20024;-70
2021/12/28 07:54:43;;;;;;;38.75;22.02;;;;;;;;;;5078028;28;20023;-71
2021/12/28 07:57:09;;;;;;;29.88;17.92;;;;;;;;;;5077775;28;20117;-71
2021/12/28 07:59:35;;;;;;;30.05;18.70;;;;;;;;;;5095721;28;20024;-71
2021/12/28 08:02:01;;;;;;;34.65;17.25;;;;;;;;;;5096127;28;20032;-71
2021/12/28 08:04:28;;;;;;;43.45;22.33;;;;;;;;;;5096601;28;20036;-73
2021/12/28 08:06:57;;;;;;;37.60;22.42;;;;;;;;;;5095803;28;20024;-72
2021/12/28 08:09:24;;;;;;;33.30;20.45;;;;;;;;;;5072206;28;20093;-73
2021/12/28 08:11:51;;;;;;;32.38;20.77;;;;;;;;;;5095989;28;20107;-72
2021/12/28 08:14:18;;;;;;;34.67;21.50;;;;;;;;;;5095260;28;20020;-73
2021/12/28 08:16:45;;;;;;;36.72;22.38;;;;;;;;;;5076868;28;20030;-71
2021/12/28 08:19:11;;;;;;;50.35;29.05;;;;;;;;;;5096140;28;20073;-71
2021/12/28 08:21:37;;;;;;;41.17;24.92;;;;;;;;;;5095155;28;20099;-71
2021/12/28 08:24:04;;;;;;;47.08;28.55;;;;;;;;;;5076668;28;20051;-70
2021/12/28 08:26:30;;;;;;;48.35;26.20;;;;;;;;;;5077160;28;20524;-70
2021/12/28 08:28:57;;;;;;;46.47;26.58;;;;;;;;;;5094796;28;20034;-70
2021/12/28 08:31:23;;;;;;;50.33;27.17;;;;;;;;;;5094787;28;20412;-72
2021/12/28 08:33:49;;;;;;;46.25;26.25;;;;;;;;;;5094777;28;20012;-71
2021/12/28 08:36:15;;;;;;;40.40;23.52;;;;;;;;;;5094709;28;20388;-71
2021/12/28 08:38:43;;;;;;;32.03;19.10;;;;;;;;;;5094277;28;20024;-71
2021/12/28 08:41:10;;;;;;;28.35;16.17;;;;;;;;;;5094371;28;20020;-71
2021/12/28 08:43:36;;;;;;;28.60;18.33;;;;;;;;;;5085611;28;20376;-70
2021/12/28 08:46:03;;;;;;;23.88;16.63;;;;;;;;;;5094862;28;20024;-73
2021/12/28 08:48:29;;;;;;;37.80;22.20;;;;;;;;;;5094730;28;20498;-71
2021/12/28 08:50:56;;;;;;;38.83;21.77;;;;;;;;;;5093745;28;20496;-72
2021/12/28 08:53:22;;;;;;;35.38;23.50;;;;;;;;;;5094580;28;20337;-71
2021/12/28 08:55:51;;;;;;;31.13;19.55;;;;;;;;;;5091129;28;20032;-70
2021/12/28 08:58:18;;;;;;;34.38;22.05;;;;;;;;;;5067035;28;20028;-71
2021/12/28 09:00:44;;;;;;;24.20;16.92;;;;;;;;;;5084019;28;20017;-71
2021/12/28 09:03:10;;;;;;;32.63;18.73;;;;;;;;;;5075065;28;20026;-70
2021/12/28 09:05:37;;;;;;;28.85;19.17;;;;;;;;;;5073809;28;20052;-72
2021/12/28 09:08:08;;;;;;;31.88;20.15;;;;;;;;;;5077225;28;20372;-72
2021/12/28 09:10:34;;;;;;;27.20;17.55;;;;;;;;;;5084153;28;20024;-72
2021/12/28 09:13:01;;;;;;;31.40;20.40;;;;;;;;;;5082299;28;20034;-72
2021/12/28 09:15:27;;;;;;;46.08;31.20;;;;;;;;;;5082120;28;20052;-72
2021/12/28 09:17:53;;;;;;;40.25;25.98;;;;;;;;;;5093714;28;20333;-73
2021/12/28 09:20:21;;;;;;;35.08;23.42;;;;;;;;;;5075988;28;20020;-72
2021/12/28 09:22:48;;;;;;;29.35;17.50;;;;;;;;;;5093567;28;20066;-70
2021/12/28 09:25:16;;;;;;;26.50;16.55;;;;;;;;;;5093985;28;20012;-72
2021/12/28 09:27:43;;;;;;;34.83;23.50;;;;;;;;;;5090884;28;20115;-71
2021/12/28 09:30:09;;;;;;;28.95;19.40;;;;;;;;;;5091537;28;20040;-72
2021/12/28 09:32:36;;;;;;;24.98;14.88;;;;;;;;;;5073058;28;20020;-71
2021/12/28 09:35:02;;;;;;;23.13;14.32;;;;;;;;;;5078679;28;20530;-72
2021/12/28 09:37:28;;;;;;;21.92;14.43;;;;;;;;;;5070432;28;20028;-72
2021/12/28 09:39:55;;;;;;;36.15;23.45;;;;;;;;;;5070363;28;20477;-73
2021/12/28 09:42:21;;;;;;;28.10;19.50;;;;;;;;;;5070950;28;20035;-74
2021/12/28 09:44:51;;;;;;;26.15;18.45;;;;;;;;;;5053934;28;20108;-71
2021/12/28 09:47:23;;;;;;;47.25;31.25;;;;;;;;;;5055037;28;20064;-70
2021/12/28 09:49:50;;;;;;;38.90;25.20;;;;;;;;;;5078115;28;20496;-70
2021/12/28 09:52:17;;;;;;;54.58;35.03;;;;;;;;;;5092821;28;20063;-71
2021/12/28 09:54:43;;;;;;;49.83;31.40;;;;;;;;;;5073910;28;20103;-72
2021/12/28 09:57:16;;;;;;;52.72;31.38;;;;;;;;;;5074586;28;20028;-72
2021/12/28 09:59:42;;;;;;;43.42;30.63;;;;;;;;;;5091972;28;20376;-72
2021/12/28 10:02:10;;;;;;;51.58;36.35;;;;;;;;;;5093229;28;20033;-73
2021/12/28 10:04:52;;;;;;;55.45;35.38;;;;;;;;;;5093106;28;20103;-74
2021/12/28 10:07:20;;;;;;;51.28;31.50;;;;;;;;;;5091660;28;20032;-73
2021/12/28 10:09:50;;;;;;;54.28;33.75;;;;;;;;;;5075205;28;20035;-73
2021/12/28 10:12:39;;;;;;;55.83;34.17;;;;;;;;;;5093064;28;20034;-71
2021/12/28 10:15:10;;;;;;;49.63;31.00;;;;;;;;;;5066820;28;20032;-69
2021/12/28 10:17:40;;;;;;;99.13;56.50;;;;;;;;;;5061729;28;20023;-68
2021/12/28 10:20:11;;;;;;;101.53;55.67;;;;;;;;;;5054127;28;20124;-69
2021/12/28 10:22:47;;;;;;;86.28;49.95;;;;;;;;;;5071478;28;20021;-70
2021/12/28 10:25:15;;;;;;;73.20;44.63;;;;;;;;;;5081060;28;20107;-69
2021/12/28 10:27:46;;;;;;;44.97;28.13;;;;;;;;;;5075832;28;20043;-70
2021/12/28 10:30:14;;;;;;;58.13;36.58;;;;;;;;;;5082689;28;20028;-69
2021/12/28 10:32:44;;;;;;;39.95;26.58;;;;;;;;;;5079034;28;20096;-69
2021/12/28 10:35:13;;;;;;;39.47;27.30;;;;;;;;;;5070843;28;20052;-68
2021/12/28 10:37:40;;;;;;;38.80;27.35;;;;;;;;;;5075970;28;20054;-69
2021/12/28 10:40:08;;;;;;;59.97;39.50;;;;;;;;;;5075761;28;20051;-68
2021/12/28 10:42:39;;;;;;;57.60;40.28;;;;;;;;;;5070832;28;20146;-69
2021/12/28 10:45:07;;;;;;;53.25;34.33;;;;;;;;;;5053863;28;20039;-72
2021/12/28 10:47:33;;;;;;;45.45;30.48;;;;;;;;;;5054079;28;20051;-70
2021/12/28 10:50:07;;;;;;;34.47;21.77;;;;;;;;;;5070624;28;20854;-69
2021/12/28 10:52:38;;;;;;;28.20;18.48;;;;;;;;;;5072207;28;20082;-70
2021/12/28 10:55:24;;;;;;;23.25;17.02;;;;;;;;;;5075117;28;20048;-70
2021/12/28 10:57:51;;;;;;;30.90;23.27;;;;;;;;;;5071917;28;20032;-70
2021/12/28 11:00:36;;;;;;;34.58;23.10;;;;;;;;;;5072708;28;20101;-70
2021/12/28 11:03:15;;;;;;;21.88;14.43;;;;;;;;;;5072791;28;20032;-70
2021/12/28 11:05:42;;;;;;;25.30;15.57;;;;;;;;;;5073836;28;20024;-69
2021/12/28 11:08:09;;;;;;;31.50;21.20;;;;;;;;;;5077332;28;20074;-70
2021/12/28 11:10:36;;;;;;;26.40;18.77;;;;;;;;;;5076617;28;20038;-70
2021/12/28 11:13:03;;;;;;;30.75;19.20;;;;;;;;;;5077080;28;20029;-70
2021/12/28 11:15:36;;;;;;;31.00;21.35;;;;;;;;;;5076825;28;20116;-69
2021/12/28 11:18:16;;;;;;;23.63;16.55;;;;;;;;;;5075524;28;20025;-71
2021/12/28 11:20:43;;;;;;;26.48;16.65;;;;;;;;;;5078110;28;20046;-71
2021/12/28 11:23:10;;;;;;;26.27;15.05;;;;;;;;;;5086713;28;20103;-72
2021/12/28 11:25:37;;;;;;;35.88;22.63;;;;;;;;;;5064886;28;20024;-71
2021/12/28 11:28:13;;;;;;;28.90;18.50;;;;;;;;;;5079310;28;20098;-72
2021/12/28 11:30:40;;;;;;;24.30;16.23;;;;;;;;;;5075638;28;20040;-72
2021/12/28 11:34:53;;;;;;;27.70;17.17;;;;;;;;;;5110959;27;20397;-71
2021/12/28 11:37:22;;;;;;;27.80;18.00;;;;;;;;;;5110375;28;20043;-70
2021/12/28 11:39:54;;;;;;;29.45;19.45;;;;;;;;;;5110573;28;20030;-70
2021/12/28 11:42:21;;;;;;;24.90;15.82;;;;;;;;;;5110710;28;20436;-72
2021/12/28 11:44:48;;;;;;;20.45;12.48;;;;;;;;;;5110283;28;20031;-72
2021/12/28 11:47:14;;;;;;;18.90;12.18;;;;;;;;;;5110400;28;20059;-71
2021/12/28 11:49:41;;;;;;;22.58;14.52;;;;;;;;;;5108749;28;20365;-72
2021/12/28 11:52:09;;;;;;;20.00;13.32;;;;;;;;;;5104216;28;20023;-70
2021/12/28 11:54:37;;;;;;;19.75;11.85;;;;;;;;;;5097237;28;20028;-70
2021/12/28 11:57:08;;;;;;;18.98;10.75;;;;;;;;;;5092195;28;20016;-69
2021/12/28 11:59:35;;;;;;;23.88;16.67;;;;;;;;;;5103243;28;20020;-72
2021/12/28 12:02:02;;;;;;;21.88;13.93;;;;;;;;;;5110490;28;20102;-72
2021/12/28 12:04:32;;;;;;;24.35;16.83;;;;;;;;;;5109193;28;20035;-72
2021/12/28 12:07:00;;;;;;;28.25;18.08;;;;;;;;;;5107533;28;20406;-69
2021/12/28 12:09:26;;;;;;;17.40;11.60;;;;;;;;;;5110079;28;20028;-70
2021/12/28 12:12:12;;;;;;;20.92;11.68;;;;;;;;;;5110098;28;20034;-72
2021/12/28 12:15:03;;;;;;;27.48;16.27;;;;;;;;;;5109811;28;20064;-70
2021/12/28 12:17:43;;;;;;;29.80;19.58;;;;;;;;;;5102259;28;20027;-70
2021/12/28 12:20:19;;;;;;;27.67;17.67;;;;;;;;;;5104430;28;20414;-71
2021/12/28 12:22:55;;;;;;;27.48;16.95;;;;;;;;;;5094389;28;20031;-71
2021/12/28 12:25:23;;;;;;;30.42;16.60;;;;;;;;;;5089192;28;20038;-73
2021/12/28 12:27:57;;;;;;;24.83;14.93;;;;;;;;;;5107746;28;20125;-71
2021/12/28 12:30:29;;;;;;;41.65;25.00;;;;;;;;;;5109328;28;20030;-71
2021/12/28 12:33:07;;;;;;;53.13;32.20;;;;;;;;;;5106254;28;20050;-70
2021/12/28 12:35:34;;;;;;;50.70;28.65;;;;;;;;;;5107550;28;20019;-71
2021/12/28 12:38:01;;;;;;;30.45;18.45;;;;;;;;;;5107642;28;20119;-73
2021/12/28 12:40:58;;;;;;;30.58;18.70;;;;;;;;;;5108187;28;20099;-71
2021/12/28 12:43:26;;;;;;;44.15;26.90;;;;;;;;;;5094222;28;20476;-72
2021/12/28 12:45:52;;;;;;;51.63;29.17;;;;;;;;;;5108304;28;20572;-72
2021/12/28 12:48:53;;;;;;;45.25;26.73;;;;;;;;;;5095206;28;20024;-71
2021/12/28 12:51:23;;;;;;;44.47;26.40;;;;;;;;;;5074846;28;20032;-70
2021/12/28 12:53:58;;;;;;;56.97;33.55;;;;;;;;;;5092407;28;20039;-71
2021/12/28 12:56:43;;;;;;;34.90;19.95;;;;;;;;;;5087670;28;20043;-69
2021/12/28 12:59:15;;;;;;;39.92;22.25;;;;;;;;;;5095213;28;20024;-71
2021/12/28 13:01:41;;;;;;;41.73;25.13;;;;;;;;;;5095333;28;20016;-72
2021/12/28 13:04:26;;;;;;;36.47;21.95;;;;;;;;;;5094253;28;20028;-71
2021/12/28 13:07:08;;;;;;;32.70;18.95;;;;;;;;;;5092762;28;20024;-73
2021/12/28 13:09:36;;;;;;;28.73;17.55;;;;;;;;;;5090855;28;20431;-69
2021/12/28 13:12:05;;;;;;;35.53;20.45;;;;;;;;;;5094932;28;20077;-75
2021/12/28 13:14:32;;;;;;;35.17;22.52;;;;;;;;;;5091804;28;20059;-75
2021/12/28 13:17:03;;;;;;;38.85;22.15;;;;;;;;;;5091732;28;20032;-72
2021/12/28 13:19:29;;;;;;;35.90;23.85;;;;;;;;;;5093787;28;20028;-74
2021/12/28 13:21:57;;;;;;;38.15;22.77;;;;;;;;;;5094424;28;20024;-71
2021/12/28 13:24:23;;;;;;;41.17;24.50;;;;;;;;;;5093527;28;20020;-72
2021/12/28 13:26:52;;;;;;;44.83;27.95;;;;;;;;;;5093888;28;20032;-73
2021/12/28 13:29:24;;;;;;;36.40;22.27;;;;;;;;;;5092743;28;20023;-73
2021/12/28 13:31:50;;;;;;;50.65;29.30;;;;;;;;;;5092435;28;20028;-74
2021/12/28 13:34:17;;;;;;;36.47;23.58;;;;;;;;;;5091824;28;20071;-74
2021/12/28 13:36:54;;;;;;;42.88;24.63;;;;;;;;;;5092094;28;20430;-75
2021/12/28 13:39:20;;;;;;;50.67;29.23;;;;;;;;;;5089272;28;20046;-74
2021/12/28 13:41:53;;;;;;;66.45;38.53;;;;;;;;;;5090987;28;20024;-73
2021/12/28 13:44:19;;;;;;;;;;;;;;;;;;5092948;28;20038;-73
2021/12/28 13:46:47;;;;;;;65.53;36.15;;;;;;;;;;5093736;28;19904;-71
2021/12/28 13:49:16;;;;;;;68.82;40.53;;;;;;;;;;5094104;28;20020;-71
2021/12/28 13:51:43;;;;;;;55.28;31.25;;;;;;;;;;5093414;28;20484;-72
2021/12/28 13:54:09;;;;;;;45.78;29.70;;;;;;;;;;5092998;28;20666;-71
2021/12/28 13:56:41;;;;;;;69.85;43.97;;;;;;;;;;5093259;28;20020;-70
2021/12/28 13:59:11;;;;;;;89.40;51.85;;;;;;;;;;5093707;28;20077;-71
2021/12/28 14:01:41;;;;;;;68.53;37.63;;;;;;;;;;5093261;28;20046;-71
2021/12/28 14:04:08;;;;;;;57.58;32.20;;;;;;;;;;5094145;28;20016;-74
2021/12/28 14:06:39;;;;;;;57.50;35.70;;;;;;;;;;5093121;28;20020;-73
2021/12/28 14:09:12;;;;;;;56.78;32.20;;;;;;;;;;5090322;28;20074;-72
2021/12/28 14:11:44;;;;;;;42.10;28.40;;;;;;;;;;5083530;28;20051;-72
2021/12/28 14:14:14;;;;;;;53.03;32.22;;;;;;;;;;5091797;28;20067;-73
2021/12/28 14:16:53;;;;;;;41.38;28.42;;;;;;;;;;5084839;28;20137;-71
2021/12/28 14:19:20;;;;;;;53.42;33.08;;;;;;;;;;5091478;28;20048;-73
2021/12/28 14:21:47;;;;;;;46.05;29.33;;;;;;;;;;5092157;28;20490;-72
2021/12/28 14:24:13;;;;;;;45.40;28.38;;;;;;;;;;5092268;28;20373;-73
2021/12/28 14:26:45;;;;;;;46.03;29.33;;;;;;;;;;5092607;28;20099;-73
2021/12/28 14:29:14;;;;;;;45.85;28.92;;;;;;;;;;5093448;28;20028;-73